Airports

 

 

Airport Name Latest METAR Visual Conditions
Atlanta International (ATL) KATL 290252Z 35004KT 10SM FEW200 OVC250 13/07 A3011 RMK AO2 SLP193 T01330067 53003 VFR
Asheville Regional (AVL) KAVL 290254Z 00000KT 10SM CLR 06/02 A3016 RMK AO2 SLP206 T00610022 53010 VFR
Birmingham International (BHM) KBHM 290253Z 00000KT 10SM BKN250 10/07 A3014 RMK AO2 SLP203 T01000072 50001 $ VFR
Chattanooga (CHA) KCHA 290253Z 00000KT 10SM SCT250 08/06 A3014 RMK AO2 SLP205 T00780056 51010 VFR
Charlotte International (CLT) KCLT 290252Z 00000KT 10SM FEW250 12/05 A3014 RMK AO2 SLP202 T01170050 53013 $ VFR
Greensboro Piedmont-Triad (GSO) KGSO 290254Z 00000KT 10SM FEW250 07/03 A3013 RMK AO2 SLP201 T00720033 50007 VFR
Greenville-Spartanburg International (GSP) KGSP 290253Z 00000KT 10SM CLR 08/05 A3013 RMK AO2 SLP199 T00780050 53012 VFR
Middle Georgia Regional Airport (MCN) KMCN 290308Z AUTO 05003KT 8SM BKN006 13/12 A3010 RMK AO2 T01280117 IFR
Tri-Cities Airport (TRI) KTRI 290253Z 00000KT 10SM CLR 04/02 A3013 RMK AO2 SLP196 T00390017 55001 $ VFR
Knoxville Regional (TYS) KTYS 290253Z 36003KT 10SM FEW100 FEW250 09/03 A3013 RMK AO2 SLP203 T00890033 53012 VFR